sensor_id;sensor_type;location;lat;lon;timestamp;P1;durP1;ratioP1;P2;durP2;ratioP2
12511;SDS011;6321;53.798;10.382;2023-04-24T00:00:01;6.47;;;5.53;;
12511;SDS011;6321;53.798;10.382;2023-04-24T00:02:30;6.83;;;6.00;;
12511;SDS011;6321;53.798;10.382;2023-04-24T00:04:57;7.87;;;5.83;;
12511;SDS011;6321;53.798;10.382;2023-04-24T00:07:27;6.40;;;5.80;;
12511;SDS011;6321;53.798;10.382;2023-04-24T00:09:53;6.53;;;5.83;;
12511;SDS011;6321;53.798;10.382;2023-04-24T00:12:19;6.93;;;6.23;;
12511;SDS011;6321;53.798;10.382;2023-04-24T00:14:45;6.93;;;5.50;;
12511;SDS011;6321;53.798;10.382;2023-04-24T00:17:11;7.43;;;6.47;;
12511;SDS011;6321;53.798;10.382;2023-04-24T00:19:37;7.20;;;6.50;;
12511;SDS011;6321;53.798;10.382;2023-04-24T00:22:03;6.23;;;5.63;;
12511;SDS011;6321;53.798;10.382;2023-04-24T00:24:29;8.40;;;6.17;;
12511;SDS011;6321;53.798;10.382;2023-04-24T00:26:55;7.43;;;6.60;;
12511;SDS011;6321;53.798;10.382;2023-04-24T00:29:21;6.80;;;6.20;;
12511;SDS011;6321;53.798;10.382;2023-04-24T00:31:47;7.27;;;6.57;;
12511;SDS011;6321;53.798;10.382;2023-04-24T00:34:13;7.83;;;6.77;;
12511;SDS011;6321;53.798;10.382;2023-04-24T00:36:38;8.07;;;6.03;;
12511;SDS011;6321;53.798;10.382;2023-04-24T00:39:05;8.67;;;6.60;;
12511;SDS011;6321;53.798;10.382;2023-04-24T00:41:33;7.77;;;7.03;;
12511;SDS011;6321;53.798;10.382;2023-04-24T00:43:59;7.20;;;6.50;;
12511;SDS011;6321;53.798;10.382;2023-04-24T00:46:25;8.30;;;6.77;;
12511;SDS011;6321;53.798;10.382;2023-04-24T00:48:51;7.87;;;7.07;;
12511;SDS011;6321;53.798;10.382;2023-04-24T00:51:18;7.60;;;6.87;;
12511;SDS011;6321;53.798;10.382;2023-04-24T00:53:44;7.97;;;7.13;;
12511;SDS011;6321;53.798;10.382;2023-04-24T00:56:10;7.73;;;7.03;;
12511;SDS011;6321;53.798;10.382;2023-04-24T00:58:36;8.80;;;6.77;;
12511;SDS011;6321;53.798;10.382;2023-04-24T01:01:02;7.57;;;6.77;;
12511;SDS011;6321;53.798;10.382;2023-04-24T01:03:31;8.10;;;7.40;;
12511;SDS011;6321;53.798;10.382;2023-04-24T01:05:58;8.57;;;7.77;;
12511;SDS011;6321;53.798;10.382;2023-04-24T01:08:24;11.10;;;8.27;;
12511;SDS011;6321;53.798;10.382;2023-04-24T01:10:53;9.33;;;7.40;;
12511;SDS011;6321;53.798;10.382;2023-04-24T01:13:19;8.50;;;7.70;;
12511;SDS011;6321;53.798;10.382;2023-04-24T01:15:46;9.50;;;8.60;;
12511;SDS011;6321;53.798;10.382;2023-04-24T01:18:12;8.83;;;7.60;;
12511;SDS011;6321;53.798;10.382;2023-04-24T01:20:41;10.10;;;8.33;;
12511;SDS011;6321;53.798;10.382;2023-04-24T01:23:09;8.47;;;7.57;;
12511;SDS011;6321;53.798;10.382;2023-04-24T01:25:36;8.43;;;7.63;;
12511;SDS011;6321;53.798;10.382;2023-04-24T01:28:02;7.90;;;7.10;;
12511;SDS011;6321;53.798;10.382;2023-04-24T01:30:29;8.97;;;7.23;;
12511;SDS011;6321;53.798;10.382;2023-04-24T01:32:55;7.90;;;7.10;;
12511;SDS011;6321;53.798;10.382;2023-04-24T01:35:21;7.83;;;7.03;;
12511;SDS011;6321;53.798;10.382;2023-04-24T01:37:47;9.33;;;8.43;;
12511;SDS011;6321;53.798;10.382;2023-04-24T01:40:13;9.23;;;7.90;;
12511;SDS011;6321;53.798;10.382;2023-04-24T01:42:40;9.20;;;8.30;;
12511;SDS011;6321;53.798;10.382;2023-04-24T01:45:06;8.63;;;7.87;;
12511;SDS011;6321;53.798;10.382;2023-04-24T01:47:35;8.13;;;7.33;;
12511;SDS011;6321;53.798;10.382;2023-04-24T01:50:02;8.17;;;7.40;;
12511;SDS011;6321;53.798;10.382;2023-04-24T01:52:28;7.97;;;7.27;;
12511;SDS011;6321;53.798;10.382;2023-04-24T01:54:56;8.10;;;7.40;;
12511;SDS011;6321;53.798;10.382;2023-04-24T01:57:22;8.53;;;6.93;;
12511;SDS011;6321;53.798;10.382;2023-04-24T01:59:48;8.00;;;7.20;;
12511;SDS011;6321;53.798;10.382;2023-04-24T02:02:14;8.03;;;7.23;;
12511;SDS011;6321;53.798;10.382;2023-04-24T02:04:40;7.97;;;7.20;;
12511;SDS011;6321;53.798;10.382;2023-04-24T02:07:06;8.33;;;6.63;;
12511;SDS011;6321;53.798;10.382;2023-04-24T02:09:32;7.90;;;7.17;;
12511;SDS011;6321;53.798;10.382;2023-04-24T02:11:58;7.43;;;6.73;;
12511;SDS011;6321;53.798;10.382;2023-04-24T02:14:25;6.93;;;6.33;;
12511;SDS011;6321;53.798;10.382;2023-04-24T02:16:51;6.93;;;6.23;;
12511;SDS011;6321;53.798;10.382;2023-04-24T02:19:18;7.03;;;6.33;;
12511;SDS011;6321;53.798;10.382;2023-04-24T02:21:44;7.63;;;6.73;;
12511;SDS011;6321;53.798;10.382;2023-04-24T02:24:10;6.97;;;6.27;;
12511;SDS011;6321;53.798;10.382;2023-04-24T02:26:36;7.93;;;6.93;;
12511;SDS011;6321;53.798;10.382;2023-04-24T02:29:02;8.23;;;6.70;;
12511;SDS011;6321;53.798;10.382;2023-04-24T02:31:28;7.20;;;6.37;;
12511;SDS011;6321;53.798;10.382;2023-04-24T02:33:54;7.33;;;6.03;;
12511;SDS011;6321;53.798;10.382;2023-04-24T02:36:20;6.60;;;6.00;;
12511;SDS011;6321;53.798;10.382;2023-04-24T02:38:46;9.03;;;6.47;;
12511;SDS011;6321;53.798;10.382;2023-04-24T02:41:12;6.87;;;6.27;;
12511;SDS011;6321;53.798;10.382;2023-04-24T02:43:38;6.47;;;5.87;;
12511;SDS011;6321;53.798;10.382;2023-04-24T02:46:03;7.37;;;6.37;;
12511;SDS011;6321;53.798;10.382;2023-04-24T02:48:29;6.93;;;6.23;;
12511;SDS011;6321;53.798;10.382;2023-04-24T02:50:55;6.43;;;5.83;;
12511;SDS011;6321;53.798;10.382;2023-04-24T02:53:22;6.87;;;5.90;;
12511;SDS011;6321;53.798;10.382;2023-04-24T02:55:48;8.70;;;6.23;;
12511;SDS011;6321;53.798;10.382;2023-04-24T02:58:14;6.33;;;5.73;;
12511;SDS011;6321;53.798;10.382;2023-04-24T03:00:40;7.47;;;5.90;;
12511;SDS011;6321;53.798;10.382;2023-04-24T03:03:06;6.07;;;5.47;;
12511;SDS011;6321;53.798;10.382;2023-04-24T03:05:32;6.83;;;5.63;;
12511;SDS011;6321;53.798;10.382;2023-04-24T03:07:58;7.17;;;6.07;;
12511;SDS011;6321;53.798;10.382;2023-04-24T03:10:24;6.23;;;5.63;;
12511;SDS011;6321;53.798;10.382;2023-04-24T03:12:50;6.07;;;5.47;;
12511;SDS011;6321;53.798;10.382;2023-04-24T03:15:16;5.90;;;5.30;;
12511;SDS011;6321;53.798;10.382;2023-04-24T03:17:42;6.67;;;5.70;;
12511;SDS011;6321;53.798;10.382;2023-04-24T03:20:08;6.33;;;5.77;;
12511;SDS011;6321;53.798;10.382;2023-04-24T03:22:34;6.27;;;5.03;;
12511;SDS011;6321;53.798;10.382;2023-04-24T03:25:00;5.70;;;5.10;;
12511;SDS011;6321;53.798;10.382;2023-04-24T03:27:26;5.57;;;5.07;;
12511;SDS011;6321;53.798;10.382;2023-04-24T03:29:52;5.93;;;5.33;;
12511;SDS011;6321;53.798;10.382;2023-04-24T03:32:20;5.43;;;4.93;;
12511;SDS011;6321;53.798;10.382;2023-04-24T03:34:47;5.40;;;4.90;;
12511;SDS011;6321;53.798;10.382;2023-04-24T03:37:13;5.90;;;4.97;;
12511;SDS011;6321;53.798;10.382;2023-04-24T03:39:39;5.20;;;4.80;;
12511;SDS011;6321;53.798;10.382;2023-04-24T03:42:05;6.77;;;4.60;;
12511;SDS011;6321;53.798;10.382;2023-04-24T03:44:31;5.27;;;4.83;;
12511;SDS011;6321;53.798;10.382;2023-04-24T03:46:57;6.47;;;4.93;;
12511;SDS011;6321;53.798;10.382;2023-04-24T03:49:23;4.57;;;4.03;;
12511;SDS011;6321;53.798;10.382;2023-04-24T03:51:49;4.97;;;4.40;;
12511;SDS011;6321;53.798;10.382;2023-04-24T03:54:15;4.70;;;4.30;;
12511;SDS011;6321;53.798;10.382;2023-04-24T03:56:41;4.77;;;4.37;;
12511;SDS011;6321;53.798;10.382;2023-04-24T03:59:07;4.37;;;3.97;;
12511;SDS011;6321;53.798;10.382;2023-04-24T04:01:33;4.40;;;3.83;;
12511;SDS011;6321;53.798;10.382;2023-04-24T04:04:02;3.97;;;3.67;;
12511;SDS011;6321;53.798;10.382;2023-04-24T04:06:28;3.60;;;3.30;;
12511;SDS011;6321;53.798;10.382;2023-04-24T04:08:55;3.50;;;3.20;;
12511;SDS011;6321;53.798;10.382;2023-04-24T04:11:21;4.20;;;3.53;;
12511;SDS011;6321;53.798;10.382;2023-04-24T04:13:47;3.90;;;3.47;;
12511;SDS011;6321;53.798;10.382;2023-04-24T04:16:13;3.83;;;3.53;;
12511;SDS011;6321;53.798;10.382;2023-04-24T04:18:41;4.03;;;3.63;;
12511;SDS011;6321;53.798;10.382;2023-04-24T04:21:07;3.57;;;3.27;;
12511;SDS011;6321;53.798;10.382;2023-04-24T04:23:33;3.60;;;3.30;;
12511;SDS011;6321;53.798;10.382;2023-04-24T04:25:59;3.77;;;3.47;;
12511;SDS011;6321;53.798;10.382;2023-04-24T04:28:26;4.43;;;3.03;;
12511;SDS011;6321;53.798;10.382;2023-04-24T04:30:52;5.47;;;3.37;;
12511;SDS011;6321;53.798;10.382;2023-04-24T04:33:19;3.47;;;3.17;;
12511;SDS011;6321;53.798;10.382;2023-04-24T04:35:45;4.73;;;3.60;;
12511;SDS011;6321;53.798;10.382;2023-04-24T04:38:13;3.97;;;3.47;;
12511;SDS011;6321;53.798;10.382;2023-04-24T04:40:40;3.50;;;3.20;;
12511;SDS011;6321;53.798;10.382;2023-04-24T04:43:06;3.50;;;3.20;;
12511;SDS011;6321;53.798;10.382;2023-04-24T04:45:32;3.30;;;3.00;;
12511;SDS011;6321;53.798;10.382;2023-04-24T04:47:59;3.77;;;3.17;;
12511;SDS011;6321;53.798;10.382;2023-04-24T04:50:25;3.70;;;3.43;;
12511;SDS011;6321;53.798;10.382;2023-04-24T04:52:52;3.30;;;3.10;;
12511;SDS011;6321;53.798;10.382;2023-04-24T04:55:17;3.67;;;3.07;;
12511;SDS011;6321;53.798;10.382;2023-04-24T04:57:44;3.50;;;3.17;;
12511;SDS011;6321;53.798;10.382;2023-04-24T05:00:11;3.37;;;3.07;;
12511;SDS011;6321;53.798;10.382;2023-04-24T05:02:37;3.93;;;3.40;;
12511;SDS011;6321;53.798;10.382;2023-04-24T05:05:03;3.13;;;2.90;;
12511;SDS011;6321;53.798;10.382;2023-04-24T05:07:30;3.90;;;3.47;;
12511;SDS011;6321;53.798;10.382;2023-04-24T05:09:56;3.50;;;3.20;;
12511;SDS011;6321;53.798;10.382;2023-04-24T05:12:22;4.43;;;3.53;;
12511;SDS011;6321;53.798;10.382;2023-04-24T05:14:48;3.73;;;3.10;;
12511;SDS011;6321;53.798;10.382;2023-04-24T05:17:14;3.30;;;3.00;;
12511;SDS011;6321;53.798;10.382;2023-04-24T05:19:41;4.87;;;3.00;;
12511;SDS011;6321;53.798;10.382;2023-04-24T05:22:07;3.27;;;2.97;;
12511;SDS011;6321;53.798;10.382;2023-04-24T05:24:34;4.13;;;2.60;;
12511;SDS011;6321;53.798;10.382;2023-04-24T05:27:00;3.00;;;2.80;;
12511;SDS011;6321;53.798;10.382;2023-04-24T05:29:27;3.03;;;2.73;;
12511;SDS011;6321;53.798;10.382;2023-04-24T05:31:55;2.97;;;2.60;;
12511;SDS011;6321;53.798;10.382;2023-04-24T05:34:21;2.57;;;2.37;;
12511;SDS011;6321;53.798;10.382;2023-04-24T05:36:47;4.73;;;2.40;;
12511;SDS011;6321;53.798;10.382;2023-04-24T05:39:13;2.43;;;2.23;;
12511;SDS011;6321;53.798;10.382;2023-04-24T05:41:40;3.10;;;2.40;;
12511;SDS011;6321;53.798;10.382;2023-04-24T05:44:06;3.20;;;2.40;;
12511;SDS011;6321;53.798;10.382;2023-04-24T05:46:32;3.80;;;2.57;;
12511;SDS011;6321;53.798;10.382;2023-04-24T05:48:58;2.70;;;2.50;;
12511;SDS011;6321;53.798;10.382;2023-04-24T05:51:24;2.87;;;2.67;;
12511;SDS011;6321;53.798;10.382;2023-04-24T05:53:50;3.70;;;2.70;;
12511;SDS011;6321;53.798;10.382;2023-04-24T05:56:16;3.53;;;2.77;;
12511;SDS011;6321;53.798;10.382;2023-04-24T05:58:42;2.70;;;2.50;;
12511;SDS011;6321;53.798;10.382;2023-04-24T06:01:08;2.47;;;2.27;;
12511;SDS011;6321;53.798;10.382;2023-04-24T06:03:34;2.20;;;2.00;;
12511;SDS011;6321;53.798;10.382;2023-04-24T06:06:00;2.73;;;2.30;;
12511;SDS011;6321;53.798;10.382;2023-04-24T06:08:26;2.43;;;2.10;;
12511;SDS011;6321;53.798;10.382;2023-04-24T06:10:52;2.30;;;2.10;;
12511;SDS011;6321;53.798;10.382;2023-04-24T06:13:18;2.87;;;2.00;;
12511;SDS011;6321;53.798;10.382;2023-04-24T06:15:44;1.70;;;1.60;;
12511;SDS011;6321;53.798;10.382;2023-04-24T06:18:10;2.10;;;2.00;;
12511;SDS011;6321;53.798;10.382;2023-04-24T06:20:37;2.03;;;1.93;;
12511;SDS011;6321;53.798;10.382;2023-04-24T06:23:03;2.10;;;1.90;;
12511;SDS011;6321;53.798;10.382;2023-04-24T06:25:29;2.30;;;2.10;;
12511;SDS011;6321;53.798;10.382;2023-04-24T06:27:55;2.07;;;1.97;;
12511;SDS011;6321;53.798;10.382;2023-04-24T06:30:21;1.90;;;1.80;;
12511;SDS011;6321;53.798;10.382;2023-04-24T06:32:47;2.30;;;1.73;;
12511;SDS011;6321;53.798;10.382;2023-04-24T06:35:13;1.90;;;1.80;;
12511;SDS011;6321;53.798;10.382;2023-04-24T06:37:41;2.00;;;1.80;;
12511;SDS011;6321;53.798;10.382;2023-04-24T06:40:07;1.83;;;1.70;;
12511;SDS011;6321;53.798;10.382;2023-04-24T06:42:33;2.00;;;1.90;;
12511;SDS011;6321;53.798;10.382;2023-04-24T06:45:00;1.97;;;1.87;;
12511;SDS011;6321;53.798;10.382;2023-04-24T06:47:26;2.23;;;1.97;;
12511;SDS011;6321;53.798;10.382;2023-04-24T06:49:52;1.67;;;1.57;;
12511;SDS011;6321;53.798;10.382;2023-04-24T06:52:18;2.10;;;2.00;;
12511;SDS011;6321;53.798;10.382;2023-04-24T06:54:44;2.20;;;2.00;;
12511;SDS011;6321;53.798;10.382;2023-04-24T06:57:10;2.17;;;2.00;;
12511;SDS011;6321;53.798;10.382;2023-04-24T06:59:37;3.50;;;2.20;;
12511;SDS011;6321;53.798;10.382;2023-04-24T07:02:03;2.10;;;1.90;;
12511;SDS011;6321;53.798;10.382;2023-04-24T07:04:29;1.90;;;1.80;;
12511;SDS011;6321;53.798;10.382;2023-04-24T07:06:55;2.33;;;1.93;;
12511;SDS011;6321;53.798;10.382;2023-04-24T07:09:23;2.00;;;1.90;;
12511;SDS011;6321;53.798;10.382;2023-04-24T07:11:50;2.00;;;1.80;;
12511;SDS011;6321;53.798;10.382;2023-04-24T07:14:16;1.83;;;1.73;;
12511;SDS011;6321;53.798;10.382;2023-04-24T07:16:42;2.10;;;1.90;;
12511;SDS011;6321;53.798;10.382;2023-04-24T07:19:08;2.43;;;2.07;;
12511;SDS011;6321;53.798;10.382;2023-04-24T07:21:34;2.40;;;2.20;;
12511;SDS011;6321;53.798;10.382;2023-04-24T07:24:00;2.03;;;1.90;;
12511;SDS011;6321;53.798;10.382;2023-04-24T07:26:27;2.10;;;1.70;;
12511;SDS011;6321;53.798;10.382;2023-04-24T07:28:54;1.90;;;1.77;;
12511;SDS011;6321;53.798;10.382;2023-04-24T07:31:20;2.07;;;1.87;;
12511;SDS011;6321;53.798;10.382;2023-04-24T07:33:46;1.97;;;1.67;;
12511;SDS011;6321;53.798;10.382;2023-04-24T07:36:12;1.67;;;1.57;;
12511;SDS011;6321;53.798;10.382;2023-04-24T07:38:42;3.00;;;1.83;;
12511;SDS011;6321;53.798;10.382;2023-04-24T07:41:08;2.77;;;2.00;;
12511;SDS011;6321;53.798;10.382;2023-04-24T07:43:34;1.90;;;1.80;;
12511;SDS011;6321;53.798;10.382;2023-04-24T07:46:00;1.87;;;1.67;;
12511;SDS011;6321;53.798;10.382;2023-04-24T07:48:26;1.80;;;1.70;;
12511;SDS011;6321;53.798;10.382;2023-04-24T07:50:53;2.20;;;2.00;;
12511;SDS011;6321;53.798;10.382;2023-04-24T07:53:19;2.50;;;1.93;;
12511;SDS011;6321;53.798;10.382;2023-04-24T07:55:45;1.80;;;1.70;;
12511;SDS011;6321;53.798;10.382;2023-04-24T07:58:11;3.13;;;2.20;;
12511;SDS011;6321;53.798;10.382;2023-04-24T08:00:37;4.80;;;2.27;;
12511;SDS011;6321;53.798;10.382;2023-04-24T08:03:03;2.50;;;2.30;;
12511;SDS011;6321;53.798;10.382;2023-04-24T08:05:29;2.10;;;2.00;;
12511;SDS011;6321;53.798;10.382;2023-04-24T08:07:56;2.13;;;2.03;;
12511;SDS011;6321;53.798;10.382;2023-04-24T08:10:22;2.40;;;2.20;;
12511;SDS011;6321;53.798;10.382;2023-04-24T08:12:48;2.27;;;2.17;;
12511;SDS011;6321;53.798;10.382;2023-04-24T08:15:14;2.73;;;2.53;;
12511;SDS011;6321;53.798;10.382;2023-04-24T08:17:40;2.60;;;2.07;;
12511;SDS011;6321;53.798;10.382;2023-04-24T08:20:08;2.00;;;1.90;;
12511;SDS011;6321;53.798;10.382;2023-04-24T08:22:38;2.67;;;2.47;;
12511;SDS011;6321;53.798;10.382;2023-04-24T08:25:04;2.40;;;2.20;;
12511;SDS011;6321;53.798;10.382;2023-04-24T08:27:31;2.60;;;2.40;;
12511;SDS011;6321;53.798;10.382;2023-04-24T08:29:57;3.10;;;2.27;;
12511;SDS011;6321;53.798;10.382;2023-04-24T08:32:24;1.77;;;1.67;;
12511;SDS011;6321;53.798;10.382;2023-04-24T08:34:52;2.40;;;2.20;;
12511;SDS011;6321;53.798;10.382;2023-04-24T08:37:21;3.43;;;2.50;;
12511;SDS011;6321;53.798;10.382;2023-04-24T08:39:47;3.13;;;2.80;;
12511;SDS011;6321;53.798;10.382;2023-04-24T08:42:12;2.70;;;2.50;;
12511;SDS011;6321;53.798;10.382;2023-04-24T08:44:39;3.60;;;2.70;;
12511;SDS011;6321;53.798;10.382;2023-04-24T08:47:05;2.63;;;2.47;;
12511;SDS011;6321;53.798;10.382;2023-04-24T08:49:33;2.50;;;2.40;;
12511;SDS011;6321;53.798;10.382;2023-04-24T08:51:59;3.43;;;3.13;;
12511;SDS011;6321;53.798;10.382;2023-04-24T08:54:25;3.73;;;3.43;;
12511;SDS011;6321;53.798;10.382;2023-04-24T08:56:52;7.07;;;3.60;;
12511;SDS011;6321;53.798;10.382;2023-04-24T08:59:19;4.00;;;3.30;;
12511;SDS011;6321;53.798;10.382;2023-04-24T09:01:47;3.20;;;2.97;;
12511;SDS011;6321;53.798;10.382;2023-04-24T09:04:13;3.70;;;3.40;;
12511;SDS011;6321;53.798;10.382;2023-04-24T09:06:41;4.67;;;4.10;;
12511;SDS011;6321;53.798;10.382;2023-04-24T09:09:07;4.13;;;3.80;;
12511;SDS011;6321;53.798;10.382;2023-04-24T09:11:34;4.47;;;4.17;;
12511;SDS011;6321;53.798;10.382;2023-04-24T09:14:00;4.67;;;4.27;;
12511;SDS011;6321;53.798;10.382;2023-04-24T09:16:26;4.17;;;3.87;;
12511;SDS011;6321;53.798;10.382;2023-04-24T09:18:53;9.27;;;4.07;;
12511;SDS011;6321;53.798;10.382;2023-04-24T09:21:20;4.10;;;3.80;;
12511;SDS011;6321;53.798;10.382;2023-04-24T09:23:47;4.77;;;3.80;;
12511;SDS011;6321;53.798;10.382;2023-04-24T09:26:22;5.10;;;4.30;;
12511;SDS011;6321;53.798;10.382;2023-04-24T09:28:49;4.70;;;4.30;;
12511;SDS011;6321;53.798;10.382;2023-04-24T09:31:18;5.00;;;4.50;;
12511;SDS011;6321;53.798;10.382;2023-04-24T09:34:05;5.50;;;5.07;;
12511;SDS011;6321;53.798;10.382;2023-04-24T09:36:32;5.13;;;4.73;;
12511;SDS011;6321;53.798;10.382;2023-04-24T09:39:00;4.87;;;4.47;;
12511;SDS011;6321;53.798;10.382;2023-04-24T09:41:26;5.23;;;4.83;;
12511;SDS011;6321;53.798;10.382;2023-04-24T09:43:55;5.50;;;5.00;;
12511;SDS011;6321;53.798;10.382;2023-04-24T09:46:28;5.63;;;5.00;;
12511;SDS011;6321;53.798;10.382;2023-04-24T09:49:02;4.50;;;4.20;;
12511;SDS011;6321;53.798;10.382;2023-04-24T09:51:34;6.73;;;4.80;;
12511;SDS011;6321;53.798;10.382;2023-04-24T09:54:01;5.00;;;4.60;;
12511;SDS011;6321;53.798;10.382;2023-04-24T09:56:28;5.37;;;4.57;;
12511;SDS011;6321;53.798;10.382;2023-04-24T09:58:54;5.23;;;4.63;;
12511;SDS011;6321;53.798;10.382;2023-04-24T10:01:32;4.93;;;4.53;;
12511;SDS011;6321;53.798;10.382;2023-04-24T10:03:59;4.70;;;4.30;;
12511;SDS011;6321;53.798;10.382;2023-04-24T10:06:34;4.67;;;4.27;;
12511;SDS011;6321;53.798;10.382;2023-04-24T10:09:00;4.50;;;4.10;;
12511;SDS011;6321;53.798;10.382;2023-04-24T10:11:27;4.07;;;3.77;;
12511;SDS011;6321;53.798;10.382;2023-04-24T10:13:53;4.60;;;4.20;;
12511;SDS011;6321;53.798;10.382;2023-04-24T10:16:23;4.50;;;4.13;;
12511;SDS011;6321;53.798;10.382;2023-04-24T10:18:49;4.60;;;4.20;;
12511;SDS011;6321;53.798;10.382;2023-04-24T10:21:16;4.70;;;4.30;;
12511;SDS011;6321;53.798;10.382;2023-04-24T10:23:42;4.73;;;4.33;;
12511;SDS011;6321;53.798;10.382;2023-04-24T10:26:10;5.60;;;4.67;;
12511;SDS011;6321;53.798;10.382;2023-04-24T10:28:42;5.23;;;4.73;;
12511;SDS011;6321;53.798;10.382;2023-04-24T10:31:09;4.70;;;4.30;;
12511;SDS011;6321;53.798;10.382;2023-04-24T10:33:37;5.00;;;4.60;;
12511;SDS011;6321;53.798;10.382;2023-04-24T10:36:06;5.10;;;4.70;;
12511;SDS011;6321;53.798;10.382;2023-04-24T10:38:32;4.60;;;4.20;;
12511;SDS011;6321;53.798;10.382;2023-04-24T10:41:08;5.73;;;4.83;;
12511;SDS011;6321;53.798;10.382;2023-04-24T10:43:34;5.60;;;5.10;;
12511;SDS011;6321;53.798;10.382;2023-04-24T10:46:04;6.07;;;5.33;;
12511;SDS011;6321;53.798;10.382;2023-04-24T10:48:31;5.80;;;5.30;;
12511;SDS011;6321;53.798;10.382;2023-04-24T10:50:57;6.70;;;5.13;;
12511;SDS011;6321;53.798;10.382;2023-04-24T10:53:24;4.60;;;4.30;;
12511;SDS011;6321;53.798;10.382;2023-04-24T10:58:24;5.80;;;5.20;;
12511;SDS011;6321;53.798;10.382;2023-04-24T11:01:00;5.83;;;5.33;;
12511;SDS011;6321;53.798;10.382;2023-04-24T11:08:23;6.70;;;6.10;;
12511;SDS011;6321;53.798;10.382;2023-04-24T11:11:02;6.80;;;6.10;;
12511;SDS011;6321;53.798;10.382;2023-04-24T11:14:11;7.20;;;5.83;;
12511;SDS011;6321;53.798;10.382;2023-04-24T11:18:50;6.80;;;6.20;;
12511;SDS011;6321;53.798;10.382;2023-04-24T11:21:18;7.13;;;6.40;;
12511;SDS011;6321;53.798;10.382;2023-04-24T11:23:47;7.30;;;6.70;;
12511;SDS011;6321;53.798;10.382;2023-04-24T11:26:21;7.83;;;7.07;;
12511;SDS011;6321;53.798;10.382;2023-04-24T11:28:49;7.43;;;6.70;;
12511;SDS011;6321;53.798;10.382;2023-04-24T11:31:34;6.37;;;5.77;;
12511;SDS011;6321;53.798;10.382;2023-04-24T11:34:13;8.27;;;7.47;;
12511;SDS011;6321;53.798;10.382;2023-04-24T11:36:39;8.00;;;7.03;;
12511;SDS011;6321;53.798;10.382;2023-04-24T11:39:06;9.77;;;8.73;;
12511;SDS011;6321;53.798;10.382;2023-04-24T11:41:33;8.80;;;7.87;;
12511;SDS011;6321;53.798;10.382;2023-04-24T11:43:59;8.97;;;8.17;;
12511;SDS011;6321;53.798;10.382;2023-04-24T11:46:27;9.80;;;8.37;;
12511;SDS011;6321;53.798;10.382;2023-04-24T11:48:53;8.97;;;8.07;;
12511;SDS011;6321;53.798;10.382;2023-04-24T11:51:19;9.47;;;8.27;;
12511;SDS011;6321;53.798;10.382;2023-04-24T11:53:45;11.33;;;8.33;;
12511;SDS011;6321;53.798;10.382;2023-04-24T11:56:11;9.03;;;8.23;;
12511;SDS011;6321;53.798;10.382;2023-04-24T11:58:38;8.80;;;7.90;;
12511;SDS011;6321;53.798;10.382;2023-04-24T12:01:04;11.10;;;9.00;;
12511;SDS011;6321;53.798;10.382;2023-04-24T12:03:30;9.03;;;8.23;;
12511;SDS011;6321;53.798;10.382;2023-04-24T12:06:06;10.27;;;8.57;;
12511;SDS011;6321;53.798;10.382;2023-04-24T12:08:32;13.63;;;9.83;;
12511;SDS011;6321;53.798;10.382;2023-04-24T12:10:59;10.90;;;7.83;;
12511;SDS011;6321;53.798;10.382;2023-04-24T12:13:26;8.37;;;7.57;;
12511;SDS011;6321;53.798;10.382;2023-04-24T12:15:52;8.60;;;7.70;;
12511;SDS011;6321;53.798;10.382;2023-04-24T12:18:18;8.57;;;7.77;;
12511;SDS011;6321;53.798;10.382;2023-04-24T12:20:44;8.73;;;7.93;;
12511;SDS011;6321;53.798;10.382;2023-04-24T12:23:12;8.83;;;7.90;;
12511;SDS011;6321;53.798;10.382;2023-04-24T12:25:38;8.40;;;7.30;;
12511;SDS011;6321;53.798;10.382;2023-04-24T12:30:38;9.00;;;8.10;;
12511;SDS011;6321;53.798;10.382;2023-04-24T12:33:04;8.87;;;8.00;;
12511;SDS011;6321;53.798;10.382;2023-04-24T12:35:30;9.60;;;8.60;;
12511;SDS011;6321;53.798;10.382;2023-04-24T12:38:11;9.07;;;8.17;;
12511;SDS011;6321;53.798;10.382;2023-04-24T12:40:40;8.93;;;8.07;;
12511;SDS011;6321;53.798;10.382;2023-04-24T12:43:28;8.53;;;7.73;;
12511;SDS011;6321;53.798;10.382;2023-04-24T12:45:53;9.17;;;8.03;;
12511;SDS011;6321;53.798;10.382;2023-04-24T12:48:19;9.47;;;7.37;;
12511;SDS011;6321;53.798;10.382;2023-04-24T12:50:45;8.53;;;7.07;;
12511;SDS011;6321;53.798;10.382;2023-04-24T12:53:11;7.90;;;7.20;;
12511;SDS011;6321;53.798;10.382;2023-04-24T12:55:37;7.03;;;6.43;;
12511;SDS011;6321;53.798;10.382;2023-04-24T12:58:03;6.80;;;5.87;;
12511;SDS011;6321;53.798;10.382;2023-04-24T13:00:29;7.27;;;5.27;;
12511;SDS011;6321;53.798;10.382;2023-04-24T13:02:55;6.50;;;5.90;;
12511;SDS011;6321;53.798;10.382;2023-04-24T13:05:21;4.97;;;4.43;;
12511;SDS011;6321;53.798;10.382;2023-04-24T13:07:47;5.67;;;5.07;;
12511;SDS011;6321;53.798;10.382;2023-04-24T13:10:13;5.73;;;5.23;;
12511;SDS011;6321;53.798;10.382;2023-04-24T13:12:39;5.70;;;4.77;;
12511;SDS011;6321;53.798;10.382;2023-04-24T13:15:05;7.63;;;5.33;;
12511;SDS011;6321;53.798;10.382;2023-04-24T13:17:32;7.83;;;5.23;;
12511;SDS011;6321;53.798;10.382;2023-04-24T13:19:58;5.00;;;4.60;;
12511;SDS011;6321;53.798;10.382;2023-04-24T13:22:24;6.30;;;5.70;;
12511;SDS011;6321;53.798;10.382;2023-04-24T13:24:50;6.00;;;5.50;;
12511;SDS011;6321;53.798;10.382;2023-04-24T13:27:16;6.03;;;5.53;;
12511;SDS011;6321;53.798;10.382;2023-04-24T13:29:42;6.70;;;6.10;;
12511;SDS011;6321;53.798;10.382;2023-04-24T13:32:08;6.70;;;6.10;;
12511;SDS011;6321;53.798;10.382;2023-04-24T13:34:34;6.67;;;6.07;;
12511;SDS011;6321;53.798;10.382;2023-04-24T13:37:01;8.17;;;7.40;;
12511;SDS011;6321;53.798;10.382;2023-04-24T13:39:28;7.57;;;6.90;;
12511;SDS011;6321;53.798;10.382;2023-04-24T13:41:54;7.27;;;6.57;;
12511;SDS011;6321;53.798;10.382;2023-04-24T13:44:21;7.73;;;6.93;;
12511;SDS011;6321;53.798;10.382;2023-04-24T13:46:48;8.20;;;7.40;;
12511;SDS011;6321;53.798;10.382;2023-04-24T13:49:14;6.47;;;5.60;;
12511;SDS011;6321;53.798;10.382;2023-04-24T13:51:40;5.47;;;4.97;;
12511;SDS011;6321;53.798;10.382;2023-04-24T13:54:06;5.73;;;5.23;;
12511;SDS011;6321;53.798;10.382;2023-04-24T13:56:32;5.83;;;5.20;;
12511;SDS011;6321;53.798;10.382;2023-04-24T13:58:58;5.23;;;4.77;;
12511;SDS011;6321;53.798;10.382;2023-04-24T14:01:25;5.63;;;5.13;;
12511;SDS011;6321;53.798;10.382;2023-04-24T14:03:51;6.53;;;5.90;;
12511;SDS011;6321;53.798;10.382;2023-04-24T14:06:18;6.10;;;5.57;;
12511;SDS011;6321;53.798;10.382;2023-04-24T14:08:44;6.87;;;6.27;;
12511;SDS011;6321;53.798;10.382;2023-04-24T14:11:10;7.70;;;7.00;;
12511;SDS011;6321;53.798;10.382;2023-04-24T14:13:40;6.93;;;6.33;;
12511;SDS011;6321;53.798;10.382;2023-04-24T14:16:06;7.93;;;7.13;;
12511;SDS011;6321;53.798;10.382;2023-04-24T14:18:32;9.17;;;7.97;;
12511;SDS011;6321;53.798;10.382;2023-04-24T14:20:58;9.80;;;8.30;;
12511;SDS011;6321;53.798;10.382;2023-04-24T14:23:26;9.20;;;7.90;;
12511;SDS011;6321;53.798;10.382;2023-04-24T14:25:52;9.63;;;8.13;;
12511;SDS011;6321;53.798;10.382;2023-04-24T14:28:18;10.00;;;9.00;;
12511;SDS011;6321;53.798;10.382;2023-04-24T14:30:45;8.57;;;7.67;;
12511;SDS011;6321;53.798;10.382;2023-04-24T14:33:10;9.23;;;6.87;;
12511;SDS011;6321;53.798;10.382;2023-04-24T14:35:37;6.37;;;5.77;;
12511;SDS011;6321;53.798;10.382;2023-04-24T14:38:03;5.70;;;5.20;;
12511;SDS011;6321;53.798;10.382;2023-04-24T14:40:29;5.43;;;4.77;;
12511;SDS011;6321;53.798;10.382;2023-04-24T14:42:57;5.93;;;5.33;;
12511;SDS011;6321;53.798;10.382;2023-04-24T14:45:23;5.83;;;5.17;;
12511;SDS011;6321;53.798;10.382;2023-04-24T14:47:49;4.77;;;4.37;;
12511;SDS011;6321;53.798;10.382;2023-04-24T14:50:15;4.87;;;4.47;;
12511;SDS011;6321;53.798;10.382;2023-04-24T14:52:41;5.37;;;4.87;;
12511;SDS011;6321;53.798;10.382;2023-04-24T14:55:07;5.37;;;4.97;;
12511;SDS011;6321;53.798;10.382;2023-04-24T14:57:36;5.40;;;4.90;;